sensor_id;sensor_type;location;lat;lon;timestamp;P1;durP1;ratioP1;P2;durP2;ratioP2
42246;SDS011;27913;42.722;23.268;2022-09-30T00:04:01;13.27;;;5.25;;
42246;SDS011;27913;42.722;23.268;2022-09-30T00:06:28;10.45;;;4.50;;
42246;SDS011;27913;42.722;23.268;2022-09-30T00:08:54;11.85;;;4.80;;
42246;SDS011;27913;42.722;23.268;2022-09-30T00:11:21;9.07;;;4.72;;
42246;SDS011;27913;42.722;23.268;2022-09-30T00:13:50;11.52;;;5.03;;
42246;SDS011;27913;42.722;23.268;2022-09-30T00:16:17;12.57;;;4.45;;
42246;SDS011;27913;42.722;23.268;2022-09-30T00:18:45;10.70;;;4.68;;
42246;SDS011;27913;42.722;23.268;2022-09-30T00:21:11;10.35;;;4.78;;
42246;SDS011;27913;42.722;23.268;2022-09-30T00:23:39;15.63;;;5.45;;
42246;SDS011;27913;42.722;23.268;2022-09-30T00:26:06;11.63;;;4.47;;
42246;SDS011;27913;42.722;23.268;2022-09-30T00:28:36;12.30;;;5.30;;
42246;SDS011;27913;42.722;23.268;2022-09-30T00:31:04;9.50;;;4.82;;
42246;SDS011;27913;42.722;23.268;2022-09-30T00:33:31;15.10;;;4.82;;
42246;SDS011;27913;42.722;23.268;2022-09-30T00:35:58;9.23;;;4.32;;
42246;SDS011;27913;42.722;23.268;2022-09-30T00:38:23;8.57;;;4.20;;
42246;SDS011;27913;42.722;23.268;2022-09-30T00:40:49;10.25;;;4.88;;
42246;SDS011;27913;42.722;23.268;2022-09-30T00:43:19;10.13;;;4.97;;
42246;SDS011;27913;42.722;23.268;2022-09-30T00:46:05;12.85;;;5.47;;
42246;SDS011;27913;42.722;23.268;2022-09-30T00:48:40;12.07;;;6.05;;
42246;SDS011;27913;42.722;23.268;2022-09-30T00:51:06;9.57;;;4.68;;
42246;SDS011;27913;42.722;23.268;2022-09-30T00:53:51;10.90;;;5.13;;
42246;SDS011;27913;42.722;23.268;2022-09-30T00:56:25;10.43;;;5.28;;
42246;SDS011;27913;42.722;23.268;2022-09-30T00:59:05;13.98;;;5.45;;
42246;SDS011;27913;42.722;23.268;2022-09-30T01:01:34;13.25;;;5.70;;
42246;SDS011;27913;42.722;23.268;2022-09-30T01:04:03;15.07;;;6.75;;
42246;SDS011;27913;42.722;23.268;2022-09-30T01:06:34;16.48;;;5.95;;
42246;SDS011;27913;42.722;23.268;2022-09-30T01:09:00;12.02;;;5.57;;
42246;SDS011;27913;42.722;23.268;2022-09-30T01:11:26;12.95;;;5.80;;
42246;SDS011;27913;42.722;23.268;2022-09-30T01:13:53;10.85;;;5.25;;
42246;SDS011;27913;42.722;23.268;2022-09-30T01:19:01;10.80;;;5.45;;
42246;SDS011;27913;42.722;23.268;2022-09-30T01:41:26;12.03;;;5.63;;
42246;SDS011;27913;42.722;23.268;2022-09-30T01:46:45;13.90;;;4.90;;
42246;SDS011;27913;42.722;23.268;2022-09-30T01:52:15;11.20;;;5.05;;
42246;SDS011;27913;42.722;23.268;2022-09-30T02:00:06;13.70;;;4.95;;
42246;SDS011;27913;42.722;23.268;2022-09-30T02:02:35;13.23;;;5.00;;
42246;SDS011;27913;42.722;23.268;2022-09-30T02:05:10;12.63;;;4.85;;
42246;SDS011;27913;42.722;23.268;2022-09-30T02:07:45;11.52;;;5.40;;
42246;SDS011;27913;42.722;23.268;2022-09-30T02:10:16;11.70;;;5.20;;
42246;SDS011;27913;42.722;23.268;2022-09-30T02:13:09;13.15;;;5.50;;
42246;SDS011;27913;42.722;23.268;2022-09-30T02:15:57;11.27;;;5.10;;
42246;SDS011;27913;42.722;23.268;2022-09-30T02:18:37;11.68;;;4.75;;
42246;SDS011;27913;42.722;23.268;2022-09-30T02:21:20;12.32;;;5.55;;
42246;SDS011;27913;42.722;23.268;2022-09-30T02:23:52;10.40;;;3.80;;
42246;SDS011;27913;42.722;23.268;2022-09-30T02:26:27;9.75;;;3.92;;
42246;SDS011;27913;42.722;23.268;2022-09-30T02:29:05;10.55;;;4.63;;
42246;SDS011;27913;42.722;23.268;2022-09-30T02:31:37;9.48;;;4.60;;
42246;SDS011;27913;42.722;23.268;2022-09-30T02:34:10;10.63;;;4.35;;
42246;SDS011;27913;42.722;23.268;2022-09-30T02:36:43;12.05;;;4.38;;
42246;SDS011;27913;42.722;23.268;2022-09-30T02:39:27;11.73;;;5.80;;
42246;SDS011;27913;42.722;23.268;2022-09-30T02:42:04;18.00;;;6.00;;
42246;SDS011;27913;42.722;23.268;2022-09-30T02:44:35;11.20;;;5.22;;
42246;SDS011;27913;42.722;23.268;2022-09-30T02:47:45;11.93;;;6.00;;
42246;SDS011;27913;42.722;23.268;2022-09-30T02:49:57;11.60;;;6.07;;
42246;SDS011;27913;42.722;23.268;2022-09-30T02:55:18;15.57;;;7.70;;
42246;SDS011;27913;42.722;23.268;2022-09-30T03:00:37;13.60;;;6.53;;
42246;SDS011;27913;42.722;23.268;2022-09-30T03:03:05;14.15;;;7.25;;
42246;SDS011;27913;42.722;23.268;2022-09-30T03:05:37;15.68;;;6.28;;
42246;SDS011;27913;42.722;23.268;2022-09-30T03:08:03;17.00;;;5.97;;
42246;SDS011;27913;42.722;23.268;2022-09-30T03:10:28;14.65;;;5.43;;
42246;SDS011;27913;42.722;23.268;2022-09-30T03:13:02;15.10;;;5.50;;
42246;SDS011;27913;42.722;23.268;2022-09-30T03:21:21;8.82;;;4.35;;
42246;SDS011;27913;42.722;23.268;2022-09-30T03:29:39;11.70;;;4.25;;
42246;SDS011;27913;42.722;23.268;2022-09-30T03:40:41;10.48;;;3.67;;
42246;SDS011;27913;42.722;23.268;2022-09-30T03:43:30;8.27;;;3.63;;
42246;SDS011;27913;42.722;23.268;2022-09-30T03:48:39;10.95;;;4.75;;
42246;SDS011;27913;42.722;23.268;2022-09-30T03:51:06;8.38;;;3.53;;
42246;SDS011;27913;42.722;23.268;2022-09-30T03:53:37;6.63;;;3.40;;
42246;SDS011;27913;42.722;23.268;2022-09-30T03:56:04;10.55;;;3.70;;
42246;SDS011;27913;42.722;23.268;2022-09-30T03:58:30;10.75;;;4.72;;
42246;SDS011;27913;42.722;23.268;2022-09-30T04:00:55;9.35;;;4.03;;
42246;SDS011;27913;42.722;23.268;2022-09-30T04:03:21;11.55;;;4.55;;
42246;SDS011;27913;42.722;23.268;2022-09-30T04:05:47;9.35;;;4.15;;
42246;SDS011;27913;42.722;23.268;2022-09-30T04:08:13;8.25;;;4.07;;
42246;SDS011;27913;42.722;23.268;2022-09-30T04:10:39;11.70;;;4.55;;
42246;SDS011;27913;42.722;23.268;2022-09-30T04:13:06;9.88;;;4.40;;
42246;SDS011;27913;42.722;23.268;2022-09-30T04:15:33;10.18;;;4.50;;
42246;SDS011;27913;42.722;23.268;2022-09-30T04:18:00;14.10;;;3.88;;
42246;SDS011;27913;42.722;23.268;2022-09-30T04:20:26;8.57;;;3.97;;
42246;SDS011;27913;42.722;23.268;2022-09-30T04:22:51;9.73;;;3.83;;
42246;SDS011;27913;42.722;23.268;2022-09-30T04:25:17;16.33;;;6.97;;
42246;SDS011;27913;42.722;23.268;2022-09-30T04:27:42;12.00;;;5.28;;
42246;SDS011;27913;42.722;23.268;2022-09-30T04:30:08;11.35;;;4.57;;
42246;SDS011;27913;42.722;23.268;2022-09-30T04:32:34;10.95;;;4.15;;
42246;SDS011;27913;42.722;23.268;2022-09-30T04:34:59;8.27;;;3.78;;
42246;SDS011;27913;42.722;23.268;2022-09-30T04:37:25;11.32;;;3.28;;
42246;SDS011;27913;42.722;23.268;2022-09-30T04:39:50;7.43;;;3.28;;
42246;SDS011;27913;42.722;23.268;2022-09-30T04:42:16;8.05;;;3.72;;
42246;SDS011;27913;42.722;23.268;2022-09-30T04:44:42;10.93;;;4.95;;
42246;SDS011;27913;42.722;23.268;2022-09-30T04:47:08;10.18;;;4.53;;
42246;SDS011;27913;42.722;23.268;2022-09-30T04:49:34;7.80;;;3.60;;
42246;SDS011;27913;42.722;23.268;2022-09-30T04:51:59;9.18;;;4.15;;
42246;SDS011;27913;42.722;23.268;2022-09-30T04:54:25;8.60;;;4.50;;
42246;SDS011;27913;42.722;23.268;2022-09-30T04:56:50;10.32;;;5.00;;
42246;SDS011;27913;42.722;23.268;2022-09-30T04:59:16;11.35;;;5.75;;
42246;SDS011;27913;42.722;23.268;2022-09-30T05:01:41;10.52;;;4.80;;
42246;SDS011;27913;42.722;23.268;2022-09-30T05:04:08;7.82;;;3.97;;
42246;SDS011;27913;42.722;23.268;2022-09-30T05:06:36;9.32;;;4.95;;
42246;SDS011;27913;42.722;23.268;2022-09-30T05:09:04;8.93;;;3.85;;
42246;SDS011;27913;42.722;23.268;2022-09-30T05:11:30;10.52;;;4.72;;
42246;SDS011;27913;42.722;23.268;2022-09-30T05:13:55;10.43;;;3.92;;
42246;SDS011;27913;42.722;23.268;2022-09-30T05:16:21;10.27;;;4.25;;
42246;SDS011;27913;42.722;23.268;2022-09-30T05:18:46;9.73;;;4.40;;
42246;SDS011;27913;42.722;23.268;2022-09-30T05:21:14;9.23;;;4.32;;
42246;SDS011;27913;42.722;23.268;2022-09-30T05:23:42;10.10;;;4.18;;
42246;SDS011;27913;42.722;23.268;2022-09-30T05:26:08;10.32;;;4.70;;
42246;SDS011;27913;42.722;23.268;2022-09-30T05:28:33;10.95;;;5.38;;
42246;SDS011;27913;42.722;23.268;2022-09-30T05:31:00;10.82;;;5.00;;
42246;SDS011;27913;42.722;23.268;2022-09-30T05:33:27;12.43;;;4.40;;
42246;SDS011;27913;42.722;23.268;2022-09-30T05:35:54;11.55;;;4.68;;
42246;SDS011;27913;42.722;23.268;2022-09-30T05:38:22;11.10;;;4.75;;
42246;SDS011;27913;42.722;23.268;2022-09-30T05:40:48;10.48;;;4.90;;
42246;SDS011;27913;42.722;23.268;2022-09-30T05:43:13;16.20;;;5.75;;
42246;SDS011;27913;42.722;23.268;2022-09-30T05:45:39;13.30;;;5.75;;
42246;SDS011;27913;42.722;23.268;2022-09-30T05:48:05;14.68;;;5.95;;
42246;SDS011;27913;42.722;23.268;2022-09-30T05:50:31;14.00;;;5.45;;
42246;SDS011;27913;42.722;23.268;2022-09-30T05:52:57;13.90;;;5.82;;
42246;SDS011;27913;42.722;23.268;2022-09-30T05:55:24;16.63;;;6.78;;
42246;SDS011;27913;42.722;23.268;2022-09-30T05:57:50;18.02;;;7.40;;
42246;SDS011;27913;42.722;23.268;2022-09-30T06:00:16;19.50;;;7.25;;
42246;SDS011;27913;42.722;23.268;2022-09-30T06:02:42;16.67;;;6.88;;
42246;SDS011;27913;42.722;23.268;2022-09-30T06:05:08;19.92;;;7.32;;
42246;SDS011;27913;42.722;23.268;2022-09-30T06:07:35;21.45;;;7.57;;
42246;SDS011;27913;42.722;23.268;2022-09-30T06:10:03;19.42;;;8.07;;
42246;SDS011;27913;42.722;23.268;2022-09-30T06:12:29;26.08;;;9.32;;
42246;SDS011;27913;42.722;23.268;2022-09-30T06:14:54;24.52;;;9.07;;
42246;SDS011;27913;42.722;23.268;2022-09-30T06:17:21;29.42;;;10.32;;
42246;SDS011;27913;42.722;23.268;2022-09-30T06:19:47;28.23;;;11.45;;
42246;SDS011;27913;42.722;23.268;2022-09-30T06:22:13;32.65;;;11.93;;
42246;SDS011;27913;42.722;23.268;2022-09-30T06:24:43;31.75;;;11.70;;
42246;SDS011;27913;42.722;23.268;2022-09-30T06:27:09;30.05;;;11.00;;
42246;SDS011;27913;42.722;23.268;2022-09-30T06:29:35;22.52;;;10.48;;
42246;SDS011;27913;42.722;23.268;2022-09-30T06:32:00;24.20;;;10.50;;
42246;SDS011;27913;42.722;23.268;2022-09-30T06:34:26;26.67;;;10.90;;
42246;SDS011;27913;42.722;23.268;2022-09-30T06:36:52;30.83;;;12.23;;
42246;SDS011;27913;42.722;23.268;2022-09-30T06:39:18;31.23;;;12.02;;
42246;SDS011;27913;42.722;23.268;2022-09-30T06:41:44;32.67;;;12.18;;
42246;SDS011;27913;42.722;23.268;2022-09-30T06:44:10;34.20;;;13.05;;
42246;SDS011;27913;42.722;23.268;2022-09-30T06:46:35;31.63;;;12.98;;
42246;SDS011;27913;42.722;23.268;2022-09-30T06:49:01;33.80;;;13.52;;
42246;SDS011;27913;42.722;23.268;2022-09-30T06:51:28;30.40;;;13.02;;
42246;SDS011;27913;42.722;23.268;2022-09-30T06:53:54;34.65;;;13.43;;
42246;SDS011;27913;42.722;23.268;2022-09-30T06:56:21;32.67;;;14.38;;
42246;SDS011;27913;42.722;23.268;2022-09-30T06:58:46;41.63;;;14.75;;
42246;SDS011;27913;42.722;23.268;2022-09-30T07:01:12;36.40;;;15.25;;
42246;SDS011;27913;42.722;23.268;2022-09-30T07:03:39;49.38;;;17.17;;
42246;SDS011;27913;42.722;23.268;2022-09-30T07:06:07;40.20;;;15.80;;
42246;SDS011;27913;42.722;23.268;2022-09-30T07:08:33;45.58;;;15.88;;
42246;SDS011;27913;42.722;23.268;2022-09-30T07:11:01;40.75;;;14.82;;
42246;SDS011;27913;42.722;23.268;2022-09-30T07:13:38;36.03;;;14.90;;
42246;SDS011;27913;42.722;23.268;2022-09-30T07:16:09;36.00;;;14.88;;
42246;SDS011;27913;42.722;23.268;2022-09-30T07:18:36;39.80;;;16.02;;
42246;SDS011;27913;42.722;23.268;2022-09-30T07:21:02;35.78;;;14.80;;
42246;SDS011;27913;42.722;23.268;2022-09-30T07:23:28;40.13;;;15.98;;
42246;SDS011;27913;42.722;23.268;2022-09-30T07:25:58;45.15;;;15.30;;
42246;SDS011;27913;42.722;23.268;2022-09-30T07:28:28;43.88;;;16.08;;
42246;SDS011;27913;42.722;23.268;2022-09-30T07:30:58;40.35;;;16.15;;
42246;SDS011;27913;42.722;23.268;2022-09-30T07:33:25;43.08;;;15.90;;
42246;SDS011;27913;42.722;23.268;2022-09-30T07:35:55;43.97;;;16.50;;
42246;SDS011;27913;42.722;23.268;2022-09-30T07:38:23;52.70;;;17.95;;
42246;SDS011;27913;42.722;23.268;2022-09-30T07:41:00;45.22;;;17.05;;
42246;SDS011;27913;42.722;23.268;2022-09-30T07:43:28;47.38;;;16.67;;
42246;SDS011;27913;42.722;23.268;2022-09-30T07:46:15;48.10;;;18.15;;
42246;SDS011;27913;42.722;23.268;2022-09-30T07:48:44;47.53;;;15.25;;
42246;SDS011;27913;42.722;23.268;2022-09-30T07:51:14;44.97;;;16.02;;
42246;SDS011;27913;42.722;23.268;2022-09-30T07:53:43;48.70;;;15.90;;
42246;SDS011;27913;42.722;23.268;2022-09-30T07:56:12;40.08;;;14.13;;
42246;SDS011;27913;42.722;23.268;2022-09-30T07:58:38;34.40;;;13.88;;
42246;SDS011;27913;42.722;23.268;2022-09-30T08:01:04;38.55;;;14.10;;
42246;SDS011;27913;42.722;23.268;2022-09-30T08:03:37;42.85;;;14.38;;
42246;SDS011;27913;42.722;23.268;2022-09-30T08:06:11;34.40;;;14.40;;
42246;SDS011;27913;42.722;23.268;2022-09-30T08:08:39;30.77;;;12.85;;
42246;SDS011;27913;42.722;23.268;2022-09-30T08:11:06;32.83;;;14.25;;
42246;SDS011;27913;42.722;23.268;2022-09-30T08:13:32;30.50;;;13.50;;
42246;SDS011;27913;42.722;23.268;2022-09-30T08:15:57;31.90;;;13.15;;
42246;SDS011;27913;42.722;23.268;2022-09-30T08:18:23;33.78;;;13.38;;
42246;SDS011;27913;42.722;23.268;2022-09-30T08:20:51;29.17;;;13.00;;
42246;SDS011;27913;42.722;23.268;2022-09-30T08:23:17;35.72;;;14.48;;
42246;SDS011;27913;42.722;23.268;2022-09-30T08:25:43;34.90;;;14.93;;
42246;SDS011;27913;42.722;23.268;2022-09-30T08:28:08;37.80;;;16.15;;
42246;SDS011;27913;42.722;23.268;2022-09-30T08:30:34;36.30;;;15.30;;
42246;SDS011;27913;42.722;23.268;2022-09-30T08:33:01;43.72;;;15.35;;
42246;SDS011;27913;42.722;23.268;2022-09-30T08:35:26;38.05;;;14.68;;
42246;SDS011;27913;42.722;23.268;2022-09-30T08:37:52;36.97;;;14.98;;
42246;SDS011;27913;42.722;23.268;2022-09-30T08:40:29;37.08;;;13.88;;
42246;SDS011;27913;42.722;23.268;2022-09-30T08:46:08;25.83;;;11.80;;
42246;SDS011;27913;42.722;23.268;2022-09-30T08:48:45;30.15;;;11.70;;
42246;SDS011;27913;42.722;23.268;2022-09-30T08:51:35;21.75;;;10.48;;
42246;SDS011;27913;42.722;23.268;2022-09-30T08:54:08;21.80;;;10.02;;
42246;SDS011;27913;42.722;23.268;2022-09-30T08:56:38;20.10;;;9.30;;
42246;SDS011;27913;42.722;23.268;2022-09-30T08:59:27;20.92;;;8.60;;
42246;SDS011;27913;42.722;23.268;2022-09-30T09:01:53;19.45;;;8.38;;
42246;SDS011;27913;42.722;23.268;2022-09-30T09:04:29;18.85;;;8.98;;
42246;SDS011;27913;42.722;23.268;2022-09-30T09:09:29;22.50;;;9.60;;
42246;SDS011;27913;42.722;23.268;2022-09-30T09:18:12;22.23;;;8.45;;
42246;SDS011;27913;42.722;23.268;2022-09-30T09:21:29;21.48;;;8.75;;
42246;SDS011;27913;42.722;23.268;2022-09-30T09:23:29;21.27;;;9.13;;
42246;SDS011;27913;42.722;23.268;2022-09-30T09:25:57;23.25;;;8.60;;
42246;SDS011;27913;42.722;23.268;2022-09-30T09:31:04;26.00;;;7.85;;
42246;SDS011;27913;42.722;23.268;2022-09-30T09:33:38;21.08;;;8.43;;
42246;SDS011;27913;42.722;23.268;2022-09-30T09:36:06;18.33;;;8.48;;
42246;SDS011;27913;42.722;23.268;2022-09-30T09:46:49;9.88;;;4.47;;
42246;SDS011;27913;42.722;23.268;2022-09-30T09:49:29;9.32;;;4.40;;
42246;SDS011;27913;42.722;23.268;2022-09-30T09:54:47;8.00;;;3.45;;
42246;SDS011;27913;42.722;23.268;2022-09-30T09:57:20;9.02;;;4.05;;
42246;SDS011;27913;42.722;23.268;2022-09-30T09:59:54;7.72;;;3.65;;
42246;SDS011;27913;42.722;23.268;2022-09-30T10:04:50;9.37;;;3.50;;
42246;SDS011;27913;42.722;23.268;2022-09-30T10:07:24;12.88;;;5.18;;
42246;SDS011;27913;42.722;23.268;2022-09-30T10:10:03;9.30;;;3.60;;
42246;SDS011;27913;42.722;23.268;2022-09-30T10:12:44;6.22;;;2.28;;
42246;SDS011;27913;42.722;23.268;2022-09-30T10:15:14;5.30;;;1.50;;
42246;SDS011;27913;42.722;23.268;2022-09-30T10:17:49;5.47;;;1.90;;
42246;SDS011;27913;42.722;23.268;2022-09-30T10:20:21;7.85;;;1.38;;
42246;SDS011;27913;42.722;23.268;2022-09-30T10:22:51;6.13;;;1.25;;
42246;SDS011;27913;42.722;23.268;2022-09-30T10:25:25;6.53;;;1.65;;
42246;SDS011;27913;42.722;23.268;2022-09-30T10:27:52;3.70;;;1.40;;
42246;SDS011;27913;42.722;23.268;2022-09-30T10:33:39;4.90;;;1.30;;
42246;SDS011;27913;42.722;23.268;2022-09-30T10:36:20;6.20;;;1.40;;
42246;SDS011;27913;42.722;23.268;2022-09-30T10:41:27;4.32;;;1.50;;
42246;SDS011;27913;42.722;23.268;2022-09-30T10:43:59;2.95;;;1.05;;
42246;SDS011;27913;42.722;23.268;2022-09-30T10:46:31;7.97;;;1.42;;
42246;SDS011;27913;42.722;23.268;2022-09-30T10:49:01;3.08;;;1.20;;
42246;SDS011;27913;42.722;23.268;2022-09-30T10:51:36;4.75;;;1.05;;
42246;SDS011;27913;42.722;23.268;2022-09-30T10:54:02;3.25;;;1.00;;
42246;SDS011;27913;42.722;23.268;2022-09-30T10:56:44;5.90;;;1.40;;
42246;SDS011;27913;42.722;23.268;2022-09-30T10:59:30;6.53;;;1.00;;
42246;SDS011;27913;42.722;23.268;2022-09-30T11:18:17;2.65;;;1.05;;
42246;SDS011;27913;42.722;23.268;2022-09-30T11:20:53;3.70;;;1.13;;
42246;SDS011;27913;42.722;23.268;2022-09-30T11:23:30;2.58;;;1.00;;
42246;SDS011;27913;42.722;23.268;2022-09-30T11:26:12;4.88;;;1.02;;
42246;SDS011;27913;42.722;23.268;2022-09-30T11:37:11;2.35;;;1.10;;
42246;SDS011;27913;42.722;23.268;2022-09-30T11:42:25;2.30;;;1.02;;
42246;SDS011;27913;42.722;23.268;2022-09-30T11:55:56;2.38;;;0.80;;
42246;SDS011;27913;42.722;23.268;2022-09-30T11:58:27;3.08;;;0.93;;
42246;SDS011;27913;42.722;23.268;2022-09-30T12:01:04;1.90;;;0.90;;
42246;SDS011;27913;42.722;23.268;2022-09-30T12:06:33;3.85;;;1.00;;
42246;SDS011;27913;42.722;23.268;2022-09-30T12:09:14;3.40;;;0.93;;
42246;SDS011;27913;42.722;23.268;2022-09-30T12:11:53;2.55;;;0.93;;
42246;SDS011;27913;42.722;23.268;2022-09-30T12:14:25;2.05;;;0.90;;
42246;SDS011;27913;42.722;23.268;2022-09-30T12:16:59;3.60;;;1.00;;
42246;SDS011;27913;42.722;23.268;2022-09-30T12:19:30;2.67;;;1.08;;
42246;SDS011;27913;42.722;23.268;2022-09-30T12:22:05;1.80;;;0.90;;
42246;SDS011;27913;42.722;23.268;2022-09-30T12:24:39;3.30;;;0.70;;
42246;SDS011;27913;42.722;23.268;2022-09-30T12:27:12;1.48;;;0.70;;
42246;SDS011;27913;42.722;23.268;2022-09-30T12:29:54;3.50;;;1.08;;
42246;SDS011;27913;42.722;23.268;2022-09-30T12:49:15;2.15;;;0.80;;
42246;SDS011;27913;42.722;23.268;2022-09-30T12:51:43;3.08;;;1.00;;
42246;SDS011;27913;42.722;23.268;2022-09-30T12:54:15;3.65;;;1.10;;
42246;SDS011;27913;42.722;23.268;2022-09-30T12:56:44;6.22;;;1.10;;
42246;SDS011;27913;42.722;23.268;2022-09-30T12:59:12;5.28;;;1.30;;
42246;SDS011;27913;42.722;23.268;2022-09-30T13:01:39;5.60;;;1.15;;
42246;SDS011;27913;42.722;23.268;2022-09-30T13:11:39;2.25;;;0.80;;
42246;SDS011;27913;42.722;23.268;2022-09-30T13:17:00;2.03;;;0.70;;
42246;SDS011;27913;42.722;23.268;2022-09-30T13:19:34;2.58;;;0.90;;
42246;SDS011;27913;42.722;23.268;2022-09-30T13:27:33;1.58;;;0.73;;
42246;SDS011;27913;42.722;23.268;2022-09-30T13:35:47;1.90;;;0.82;;
42246;SDS011;27913;42.722;23.268;2022-09-30T13:38:16;4.82;;;0.90;;
42246;SDS011;27913;42.722;23.268;2022-09-30T13:40:56;2.60;;;0.80;;
42246;SDS011;27913;42.722;23.268;2022-09-30T13:46:23;2.10;;;0.95;;
42246;SDS011;27913;42.722;23.268;2022-09-30T13:48:55;4.32;;;0.88;;
42246;SDS011;27913;42.722;23.268;2022-09-30T13:51:25;3.60;;;1.00;;
42246;SDS011;27913;42.722;23.268;2022-09-30T13:53:55;2.65;;;0.70;;
42246;SDS011;27913;42.722;23.268;2022-09-30T13:56:29;3.92;;;0.93;;
42246;SDS011;27913;42.722;23.268;2022-09-30T14:02:06;1.65;;;0.90;;
42246;SDS011;27913;42.722;23.268;2022-09-30T14:21:51;2.45;;;0.98;;
42246;SDS011;27913;42.722;23.268;2022-09-30T14:24:26;2.75;;;0.90;;
42246;SDS011;27913;42.722;23.268;2022-09-30T14:26:58;1.88;;;0.93;;
42246;SDS011;27913;42.722;23.268;2022-09-30T14:32:30;3.83;;;1.00;;
42246;SDS011;27913;42.722;23.268;2022-09-30T14:34:59;5.85;;;0.80;;
42246;SDS011;27913;42.722;23.268;2022-09-30T14:40:00;1.63;;;0.57;;
42246;SDS011;27913;42.722;23.268;2022-09-30T14:42:30;1.80;;;0.90;;
42246;SDS011;27913;42.722;23.268;2022-09-30T14:45:00;2.60;;;0.70;;
42246;SDS011;27913;42.722;23.268;2022-09-30T14:47:37;3.45;;;0.85;;
42246;SDS011;27913;42.722;23.268;2022-09-30T14:50:12;5.60;;;1.20;;
42246;SDS011;27913;42.722;23.268;2022-09-30T14:52:42;6.22;;;1.10;;
42246;SDS011;27913;42.722;23.268;2022-09-30T14:55:22;2.63;;;0.90;;
42246;SDS011;27913;42.722;23.268;2022-09-30T14:58:13;2.60;;;1.15;;
42246;SDS011;27913;42.722;23.268;2022-09-30T15:01:11;1.48;;;0.90;;
42246;SDS011;27913;42.722;23.268;2022-09-30T15:03:43;1.67;;;0.77;;
42246;SDS011;27913;42.722;23.268;2022-09-30T15:06:16;2.95;;;0.95;;
42246;SDS011;27913;42.722;23.268;2022-09-30T15:08:52;3.00;;;1.10;;
42246;SDS011;27913;42.722;23.268;2022-09-30T15:11:26;2.80;;;1.08;;
42246;SDS011;27913;42.722;23.268;2022-09-30T15:13:57;3.47;;;0.95;;
42246;SDS011;27913;42.722;23.268;2022-09-30T15:16:27;2.50;;;1.05;;
42246;SDS011;27913;42.722;23.268;2022-09-30T15:18:54;3.78;;;1.23;;
42246;SDS011;27913;42.722;23.268;2022-09-30T15:21:21;4.05;;;1.27;;
42246;SDS011;27913;42.722;23.268;2022-09-30T15:23:52;2.08;;;1.08;;
42246;SDS011;27913;42.722;23.268;2022-09-30T15:26:20;4.78;;;1.40;;
42246;SDS011;27913;42.722;23.268;2022-09-30T15:28:49;4.88;;;1.05;;
42246;SDS011;27913;42.722;23.268;2022-09-30T15:31:25;4.28;;;1.00;;
42246;SDS011;27913;42.722;23.268;2022-09-30T15:33:59;3.58;;;1.00;;
42246;SDS011;27913;42.722;23.268;2022-09-30T15:36:27;1.90;;;0.88;;
42246;SDS011;27913;42.722;23.268;2022-09-30T15:38:52;3.85;;;1.40;;
42246;SDS011;27913;42.722;23.268;2022-09-30T15:41:18;3.42;;;1.05;;
42246;SDS011;27913;42.722;23.268;2022-09-30T15:43:47;3.65;;;1.30;;
42246;SDS011;27913;42.722;23.268;2022-09-30T15:46:16;3.38;;;1.30;;
42246;SDS011;27913;42.722;23.268;2022-09-30T15:48:42;7.32;;;1.58;;
42246;SDS011;27913;42.722;23.268;2022-09-30T15:53:51;3.17;;;1.30;;
42246;SDS011;27913;42.722;23.268;2022-09-30T15:56:25;5.93;;;1.85;;
42246;SDS011;27913;42.722;23.268;2022-09-30T15:58:59;6.50;;;1.45;;
42246;SDS011;27913;42.722;23.268;2022-09-30T16:09:17;7.28;;;1.75;;
42246;SDS011;27913;42.722;23.268;2022-09-30T16:12:06;5.22;;;1.63;;
42246;SDS011;27913;42.722;23.268;2022-09-30T16:17:15;6.00;;;1.67;;
42246;SDS011;27913;42.722;23.268;2022-09-30T16:19:49;3.20;;;1.40;;
42246;SDS011;27913;42.722;23.268;2022-09-30T16:25:15;2.42;;;1.23;;
42246;SDS011;27913;42.722;23.268;2022-09-30T16:27:45;6.03;;;1.55;;
42246;SDS011;27913;42.722;23.268;2022-09-30T16:30:13;3.60;;;1.48;;
42246;SDS011;27913;42.722;23.268;2022-09-30T16:32:43;2.73;;;1.33;;
42246;SDS011;27913;42.722;23.268;2022-09-30T16:35:19;4.80;;;1.58;;
42246;SDS011;27913;42.722;23.268;2022-09-30T16:37:48;5.50;;;1.52;;
42246;SDS011;27913;42.722;23.268;2022-09-30T16:40:16;5.57;;;1.52;;
42246;SDS011;27913;42.722;23.268;2022-09-30T16:42:43;2.65;;;1.23;;
42246;SDS011;27913;42.722;23.268;2022-09-30T16:45:12;2.80;;;1.30;;
42246;SDS011;27913;42.722;23.268;2022-09-30T16:47:39;5.15;;;1.85;;
42246;SDS011;27913;42.722;23.268;2022-09-30T16:50:17;10.10;;;1.80;;
42246;SDS011;27913;42.722;23.268;2022-09-30T16:52:46;4.13;;;1.88;;
42246;SDS011;27913;42.722;23.268;2022-09-30T16:55:12;5.32;;;2.05;;
42246;SDS011;27913;42.722;23.268;2022-09-30T16:57:37;4.18;;;1.65;;
42246;SDS011;27913;42.722;23.268;2022-09-30T17:00:04;6.15;;;1.98;;
42246;SDS011;27913;42.722;23.268;2022-09-30T17:02:31;7.38;;;2.13;;
42246;SDS011;27913;42.722;23.268;2022-09-30T17:04:57;3.92;;;1.60;;
42246;SDS011;27913;42.722;23.268;2022-09-30T17:07:23;5.35;;;1.92;;
42246;SDS011;27913;42.722;23.268;2022-09-30T17:09:48;5.72;;;1.60;;
42246;SDS011;27913;42.722;23.268;2022-09-30T17:12:14;6.25;;;1.80;;
42246;SDS011;27913;42.722;23.268;2022-09-30T17:14:39;5.30;;;1.88;;
42246;SDS011;27913;42.722;23.268;2022-09-30T17:17:07;4.00;;;1.27;;
42246;SDS011;27913;42.722;23.268;2022-09-30T17:19:33;5.88;;;2.03;;
42246;SDS011;27913;42.722;23.268;2022-09-30T17:22:00;3.83;;;1.52;;
42246;SDS011;27913;42.722;23.268;2022-09-30T17:24:26;3.97;;;1.27;;
42246;SDS011;27913;42.722;23.268;2022-09-30T17:26:52;3.17;;;1.20;;
42246;SDS011;27913;42.722;23.268;2022-09-30T17:29:17;4.63;;;1.30;;
42246;SDS011;27913;42.722;23.268;2022-09-30T17:31:43;3.75;;;1.10;;
42246;SDS011;27913;42.722;23.268;2022-09-30T17:34:08;8.30;;;1.40;;
42246;SDS011;27913;42.722;23.268;2022-09-30T17:36:34;5.43;;;2.15;;
42246;SDS011;27913;42.722;23.268;2022-09-30T17:39:00;7.90;;;2.50;;
42246;SDS011;27913;42.722;23.268;2022-09-30T17:41:26;8.60;;;3.53;;
42246;SDS011;27913;42.722;23.268;2022-09-30T17:44:10;9.50;;;3.97;;
42246;SDS011;27913;42.722;23.268;2022-09-30T17:46:40;9.32;;;3.75;;
42246;SDS011;27913;42.722;23.268;2022-09-30T17:49:08;9.95;;;3.25;;
42246;SDS011;27913;42.722;23.268;2022-09-30T17:51:33;6.25;;;3.05;;
42246;SDS011;27913;42.722;23.268;2022-09-30T17:54:02;14.07;;;5.40;;
42246;SDS011;27913;42.722;23.268;2022-09-30T17:56:31;17.73;;;5.97;;
42246;SDS011;27913;42.722;23.268;2022-09-30T17:58:56;14.32;;;4.10;;
42246;SDS011;27913;42.722;23.268;2022-09-30T18:01:24;11.10;;;5.80;;
42246;SDS011;27913;42.722;23.268;2022-09-30T18:03:50;15.43;;;7.13;;
42246;SDS011;27913;42.722;23.268;2022-09-30T18:06:17;9.50;;;4.30;;
42246;SDS011;27913;42.722;23.268;2022-09-30T18:08:50;13.93;;;5.05;;
42246;SDS011;27913;42.722;23.268;2022-09-30T18:11:20;8.60;;;3.50;;
42246;SDS011;27913;42.722;23.268;2022-09-30T18:13:57;7.07;;;3.40;;
42246;SDS011;27913;42.722;23.268;2022-09-30T18:16:24;11.35;;;3.40;;
42246;SDS011;27913;42.722;23.268;2022-09-30T18:19:01;10.35;;;4.97;;
42246;SDS011;27913;42.722;23.268;2022-09-30T18:21:28;8.75;;;3.03;;
42246;SDS011;27913;42.722;23.268;2022-09-30T18:23:54;7.65;;;2.35;;
42246;SDS011;27913;42.722;23.268;2022-09-30T18:26:21;7.00;;;2.50;;